weather.gov     
National Weather Service

Terminal Aerodrome Forecast
NWS Homepage
This page is being discontinued on March 12, 2014.
The same data is available at this site. Please update your bookmarks.
Thank you, and we apologize for the inconvenience.
Please send an email to SR-SRH.Webmaster@noaa.gov with any concerns.


Current Version
Previous Version:    01  02  03  04  05  06  07  08  09  10  11  12  13  14  15  16  17  18  19  20  21  22  23  24  25  26  27  
[Printable]
340
FTUS46 KOTX 180520
TAFPUW
TAF
KPUW 180520Z 1806/1906 18005KT P6SM -SHRA SCT015 BKN040 BKN080
     FM180800 24016G22KT P6SM -SHRA BKN040 BKN080
     FM181000 24019G26KT P6SM VCSH SCT009 BKN025
     FM181400 24027G33KT P6SM SCT025 BKN040
     FM182100 26019G26KT P6SM SCT050 BKN150
     FM190100 22010G15KT P6SM SCT150=




340
FTUS46 KOTX 180520
TAFPUW
TAF
KPUW 180520Z 1806/1906 18005KT P6SM -SHRA SCT015 BKN040 BKN080
     FM180800 24016G22KT P6SM -SHRA BKN040 BKN080
     FM181000 24019G26KT P6SM VCSH SCT009 BKN025
     FM181400 24027G33KT P6SM SCT025 BKN040
     FM182100 26019G26KT P6SM SCT050 BKN150
     FM190100 22010G15KT P6SM SCT150=


U.S. Dept. of Commerce
NOAA National Weather Service
1325 East West Highway
Silver Spring, MD 20910
E-mail: w-nws.webmaster@noaa.gov
Page last modified: May 16, 2007
NATIONAL WEATHER SERVICE: for Safety, for Work, for Fun - FOR LIFE